Time;durP1;ratioP1;P1;durP2;ratioP2;P2;SDS_P1;SDS_P2;PMS_P1;PMS_P2;Temp;Humidity;BMP_temperature;BMP_pressure;BME280_temperature;BME280_humidity;BME280_pressure;Samples;Min_cycle;Max_cycle;Signal;HPM_P1;HPM_P2
2023/01/27 00:04:06;;;;;;;24.20;21.80;;;3.40;97.70;;;;;;10539617;28;20254;-78
2023/01/27 00:09:10;;;;;;;24.03;21.37;;;3.40;97.60;;;;;;10503885;28;20307;-78
2023/01/27 00:14:16;;;;;;;21.23;19.13;;;3.30;97.80;;;;;;10516802;28;20211;-78
2023/01/27 00:19:18;;;;;;;22.73;20.43;;;3.30;98.10;;;;;;10523038;28;20306;-78
2023/01/27 00:24:35;;;;;;;23.60;20.10;;;3.30;97.80;;;;;;10526721;28;20553;-78
2023/01/27 00:29:39;;;;;;;23.97;21.60;;;3.30;98.40;;;;;;10526997;28;20246;-78
2023/01/27 00:34:41;;;;;;;24.00;21.65;;;3.30;97.90;;;;;;10499262;28;20226;-79
2023/01/27 00:39:43;;;;;;;21.57;19.37;;;3.40;98.10;;;;;;10528285;28;20227;-78
2023/01/27 00:50:04;;;;;;;24.03;21.57;;;3.40;97.50;;;;;;10505772;28;20707;-79
2023/01/27 00:55:09;;;;;;;23.10;20.70;;;3.30;97.80;;;;;;10522664;28;20231;-79
2023/01/27 01:00:14;;;;;;;23.80;19.63;;;3.30;98.00;;;;;;10526119;28;20209;-79
2023/01/27 01:05:16;;;;;;;25.67;22.87;;;3.50;97.50;;;;;;10514902;28;20291;-79
2023/01/27 01:10:19;;;;;;;23.73;21.20;;;3.50;97.60;;;;;;10510084;28;20215;-79
2023/01/27 01:15:22;;;;;;;22.90;20.50;;;3.40;97.40;;;;;;10507107;28;20234;-81
2023/01/27 01:20:25;;;;;;;25.73;23.05;;;3.30;97.90;;;;;;10514313;28;20352;-80
2023/01/27 01:25:27;;;;;;;23.30;21.00;;;3.40;98.00;;;;;;10507492;28;20193;-79
2023/01/27 01:30:34;;;;;;;24.73;22.13;;;3.50;97.80;;;;;;10492735;28;20734;-80
2023/01/27 01:35:39;;;;;;;24.53;21.93;;;3.40;97.80;;;;;;10486718;28;20197;-80
2023/01/27 01:40:41;;;;;;;23.83;21.33;;;3.30;97.70;;;;;;10504242;28;20213;-78
2023/01/27 01:45:52;;;;;;;24.87;22.23;;;3.40;97.90;;;;;;10529395;28;20200;-78
2023/01/27 01:50:58;;;;;;;21.60;19.40;;;3.40;98.30;;;;;;10535179;28;20664;-78
2023/01/27 01:56:07;;;;;;;25.17;22.50;;;3.30;98.10;;;;;;10524933;28;20197;-78
2023/01/27 02:01:12;;;;;;;21.50;19.00;;;3.30;98.30;;;;;;10540125;28;20219;-78
2023/01/27 02:06:14;;;;;;;22.70;20.40;;;3.30;97.80;;;;;;10523789;28;20200;-78
2023/01/27 02:11:16;;;;;;;21.77;19.23;;;3.30;97.90;;;;;;10533711;28;20277;-78
2023/01/27 02:16:20;;;;;;;23.20;19.03;;;3.30;97.50;;;;;;10522319;28;20226;-78
2023/01/27 02:21:22;;;;;;;22.90;20.43;;;3.20;97.70;;;;;;10537724;28;20286;-78
2023/01/27 02:26:29;;;;;;;22.00;19.60;;;3.20;97.60;;;;;;10504759;28;20245;-78
2023/01/27 02:31:31;;;;;;;21.27;17.90;;;3.20;97.90;;;;;;10533551;28;20210;-76
2023/01/27 02:36:37;;;;;;;17.90;16.00;;;3.20;98.10;;;;;;10539117;28;20188;-78
2023/01/27 02:41:44;;;;;;;18.17;16.43;;;3.20;97.30;;;;;;10490160;28;20279;-78
2023/01/27 02:46:47;;;;;;;16.97;15.27;;;3.20;97.70;;;;;;10481135;28;20201;-77
2023/01/27 02:51:49;;;;;;;19.70;16.07;;;3.20;97.70;;;;;;10475413;28;20235;-78
2023/01/27 02:56:53;;;;;;;16.75;14.90;;;3.20;97.50;;;;;;10454246;28;20204;-78
2023/01/27 03:01:58;;;;;;;18.67;15.70;;;3.40;97.90;;;;;;10466014;28;20469;-78
2023/01/27 03:07:03;;;;;;;18.23;15.20;;;3.40;97.50;;;;;;10445376;28;20235;-78
2023/01/27 03:12:22;;;;;;;16.77;14.70;;;3.40;97.60;;;;;;10477668;28;20219;-78
2023/01/27 03:22:45;;;;;;;16.20;14.50;;;3.40;97.00;;;;;;10481975;28;20542;-78
2023/01/27 03:27:51;;;;;;;17.13;15.40;;;3.30;96.80;;;;;;10464094;28;20652;-78
2023/01/27 03:33:14;;;;;;;16.87;15.17;;;3.30;97.00;;;;;;10486251;28;20700;-79
2023/01/27 03:49:14;;;;;;;19.47;17.57;;;3.30;97.30;;;;;;10528223;28;20215;-80
2023/01/27 03:54:17;;;;;;;18.57;16.67;;;3.30;97.40;;;;;;10496222;28;20216;-79
2023/01/27 03:59:20;;;;;;;19.30;17.40;;;3.30;97.30;;;;;;10527840;28;20311;-80
2023/01/27 04:09:42;;;;;;;17.97;16.10;;;3.20;97.50;;;;;;10491377;28;20211;-77
2023/01/27 04:14:45;;;;;;;17.37;15.57;;;3.30;96.80;;;;;;10520301;28;20691;-79
2023/01/27 04:19:47;;;;;;;17.17;15.47;;;3.20;96.40;;;;;;10512943;28;20219;-78
2023/01/27 04:24:50;;;;;;;18.13;16.33;;;3.20;96.70;;;;;;10485436;28;20199;-79
2023/01/27 04:29:53;;;;;;;18.20;16.40;;;3.20;97.40;;;;;;10526735;28;20687;-78
2023/01/27 04:34:55;;;;;;;17.63;15.93;;;3.20;97.20;;;;;;10500964;28;20277;-78
2023/01/27 04:39:57;;;;;;;17.40;15.60;;;3.20;96.60;;;;;;10461447;28;20283;-79
2023/01/27 04:45:00;;;;;;;19.23;17.35;;;3.20;96.60;;;;;;10484317;28;20200;-78
2023/01/27 04:50:02;;;;;;;21.10;18.90;;;3.40;96.60;;;;;;10471757;28;20266;-77
2023/01/27 04:55:05;;;;;;;18.77;17.07;;;3.40;96.70;;;;;;10482897;28;20224;-79
2023/01/27 05:00:12;;;;;;;20.40;18.40;;;3.40;97.00;;;;;;10467053;28;20274;-79
2023/01/27 05:05:14;;;;;;;21.70;19.63;;;3.30;96.70;;;;;;10471702;28;20228;-80
2023/01/27 05:10:17;;;;;;;24.33;21.93;;;3.50;97.00;;;;;;10446880;28;20229;-79
2023/01/27 05:15:20;;;;;;;24.10;21.70;;;3.50;96.90;;;;;;10466961;28;20235;-79
2023/01/27 05:20:22;;;;;;;24.73;22.23;;;3.40;96.90;;;;;;10451976;28;20308;-80
2023/01/27 05:25:24;;;;;;;26.73;23.93;;;3.40;97.00;;;;;;10487891;28;20229;-79
2023/01/27 05:30:28;;;;;;;27.00;24.30;;;3.30;97.10;;;;;;10486819;28;20221;-79
2023/01/27 05:35:33;;;;;;;27.47;24.63;;;3.30;97.20;;;;;;10510854;28;20220;-80
2023/01/27 05:40:35;;;;;;;24.77;22.17;;;3.30;96.90;;;;;;10517127;28;20228;-79
2023/01/27 05:45:38;;;;;;;26.05;23.35;;;3.20;97.10;;;;;;10521790;28;20257;-80
2023/01/27 05:50:40;;;;;;;26.43;23.80;;;3.40;97.70;;;;;;10525023;28;20222;-79
2023/01/27 05:55:43;;;;;;;26.00;23.43;;;3.40;97.70;;;;;;10511092;28;20224;-80
2023/01/27 06:00:47;;;;;;;25.77;23.10;;;3.40;97.70;;;;;;10506888;28;20224;-79
2023/01/27 06:05:53;;;;;;;25.30;22.60;;;3.30;97.90;;;;;;10505317;28;20275;-78
2023/01/27 06:10:55;;;;;;;24.37;21.90;;;3.30;97.80;;;;;;10534367;28;20211;-78
2023/01/27 06:15:58;;;;;;;24.17;21.70;;;3.30;98.10;;;;;;10521512;28;20267;-78
2023/01/27 06:21:02;;;;;;;25.50;23.02;;;3.30;97.90;;;;;;10513838;28;20289;-78
2023/01/27 06:26:08;;;;;;;25.10;22.50;;;3.40;98.00;;;;;;10502129;28;20333;-78
2023/01/27 06:31:13;;;;;;;24.00;21.60;;;3.50;97.70;;;;;;10533349;28;20644;-78
2023/01/27 06:36:17;;;;;;;21.57;19.37;;;3.40;97.60;;;;;;10516331;28;20213;-78
2023/01/27 06:41:19;;;;;;;22.30;20.10;;;3.30;97.60;;;;;;10536377;28;20318;-78
2023/01/27 06:46:22;;;;;;;23.50;21.13;;;3.50;97.40;;;;;;10501599;28;20599;-78
2023/01/27 06:51:25;;;;;;;23.87;21.57;;;3.50;96.80;;;;;;10520754;28;20217;-78
2023/01/27 06:56:26;;;;;;;23.58;21.02;;;3.40;97.70;;;;;;10512224;28;20283;-78
2023/01/27 07:01:30;;;;;;;23.90;21.60;;;3.50;97.40;;;;;;10518180;28;20219;-78
2023/01/27 07:06:32;;;;;;;21.93;19.57;;;3.50;97.60;;;;;;10517550;28;20196;-78
2023/01/27 07:11:34;;;;;;;23.17;20.90;;;3.40;97.10;;;;;;10521088;28;20216;-78
2023/01/27 07:16:38;;;;;;;22.27;19.97;;;3.40;97.00;;;;;;10471718;28;20231;-78
2023/01/27 07:21:40;;;;;;;24.20;21.80;;;3.30;97.40;;;;;;10508969;28;20219;-80
2023/01/27 07:26:43;;;;;;;22.47;20.27;;;3.30;97.40;;;;;;10530891;28;20373;-80
2023/01/27 07:31:47;;;;;;;23.90;21.57;;;3.30;97.80;;;;;;10521637;28;20289;-79
2023/01/27 07:36:49;;;;;;;22.07;19.87;;;3.30;97.50;;;;;;10544043;28;20191;-79
2023/01/27 07:41:51;;;;;;;21.40;18.97;;;3.30;97.40;;;;;;10511766;28;20332;-77
2023/01/27 07:46:54;;;;;;;22.50;20.20;;;3.40;96.80;;;;;;10523153;28;20577;-79
2023/01/27 07:51:56;;;;;;;22.47;20.17;;;3.30;97.50;;;;;;10476240;28;20258;-79
2023/01/27 07:56:59;;;;;;;20.93;18.90;;;3.30;97.60;;;;;;10508520;28;20203;-79
2023/01/27 08:02:03;;;;;;;22.00;19.60;;;3.30;97.60;;;;;;10530387;28;20253;-78
2023/01/27 08:07:06;;;;;;;19.50;17.60;;;3.40;97.50;;;;;;10526115;28;20230;-78
2023/01/27 08:12:08;;;;;;;20.10;18.07;;;3.40;96.60;;;;;;10511223;28;20295;-78
2023/01/27 08:17:11;;;;;;;18.00;16.30;;;3.40;97.00;;;;;;10494867;28;20219;-77
2023/01/27 08:22:18;;;;;;;16.97;15.27;;;3.40;96.10;;;;;;10515031;28;20197;-77
2023/01/27 08:27:20;;;;;;;17.97;16.17;;;3.30;96.30;;;;;;10490006;28;20208;-77
2023/01/27 08:32:24;;;;;;;18.02;16.23;;;3.30;96.40;;;;;;10517511;28;20222;-78
2023/01/27 08:37:26;;;;;;;17.43;15.73;;;3.40;96.50;;;;;;10528649;28;20235;-77
2023/01/27 08:42:28;;;;;;;18.50;16.70;;;3.60;95.90;;;;;;10518351;28;20640;-77
2023/01/27 08:47:31;;;;;;;17.70;15.93;;;3.50;96.00;;;;;;10519658;28;20226;-77
2023/01/27 08:52:33;;;;;;;18.30;16.50;;;3.50;96.20;;;;;;10536819;28;20246;-77
2023/01/27 08:57:36;;;;;;;18.45;16.55;;;3.50;96.50;;;;;;10539135;28;20228;-77
2023/01/27 09:02:39;;;;;;;18.27;16.37;;;3.60;96.10;;;;;;10521058;28;20206;-77
2023/01/27 09:07:41;;;;;;;17.60;15.67;;;3.70;96.00;;;;;;10543504;28;20239;-77
2023/01/27 09:12:44;;;;;;;18.92;17.02;;;3.60;96.10;;;;;;10529685;28;20307;-77
2023/01/27 09:17:47;;;;;;;18.20;16.40;;;3.80;95.70;;;;;;10545287;28;20226;-77
2023/01/27 09:22:49;;;;;;;18.30;16.47;;;4.00;95.30;;;;;;10544170;28;20427;-77
2023/01/27 09:27:55;;;;;;;17.85;15.88;;;3.90;95.20;;;;;;10547689;28;20220;-77
2023/01/27 09:33:02;;;;;;;18.50;16.60;;;3.90;94.50;;;;;;10547204;28;20567;-77
2023/01/27 09:38:06;;;;;;;20.13;17.97;;;3.90;95.20;;;;;;10545743;28;20532;-78
2023/01/27 09:43:24;;;;;;;20.13;17.60;;;3.80;95.00;;;;;;10519529;28;20196;-77
2023/01/27 09:48:39;;;;;;;22.10;19.80;;;3.60;95.90;;;;;;10509371;28;20219;-76
2023/01/27 09:53:59;;;;;;;22.30;20.00;;;3.60;95.10;;;;;;10507587;28;20217;-76
2023/01/27 09:59:18;;;;;;;22.93;19.20;;;3.50;94.70;;;;;;10534299;28;20592;-78
2023/01/27 10:04:52;;;;;;;24.67;20.43;;;3.50;95.90;;;;;;10506367;28;20210;-76
2023/01/27 10:10:10;;;;;;;25.60;21.10;;;3.50;95.30;;;;;;10524130;28;20556;-77
2023/01/27 10:15:28;;;;;;;23.58;20.67;;;3.50;95.70;;;;;;10520274;28;20222;-77
2023/01/27 10:20:41;;;;;;;24.10;19.83;;;3.70;96.70;;;;;;10529371;28;20230;-76
2023/01/27 10:25:58;;;;;;;22.13;18.60;;;3.80;95.80;;;;;;10545909;28;20705;-76
2023/01/27 10:31:01;;;;;;;18.83;16.40;;;4.00;95.30;;;;;;10519130;28;20224;-77
2023/01/27 10:36:09;;;;;;;17.53;15.67;;;4.00;95.10;;;;;;10504168;28;20707;-77
2023/01/27 10:41:23;;;;;;;18.37;15.43;;;3.90;94.50;;;;;;10526228;28;20218;-78
2023/01/27 10:46:34;;;;;;;18.00;15.43;;;4.10;95.30;;;;;;10513870;28;20472;-77
2023/01/27 10:51:42;;;;;;;17.73;15.67;;;4.20;95.10;;;;;;10499468;28;20311;-77
2023/01/27 10:56:49;;;;;;;16.23;14.50;;;4.20;94.50;;;;;;10526632;28;20227;-76
2023/01/27 11:01:56;;;;;;;16.80;15.00;;;4.10;94.10;;;;;;10526763;28;20196;-78
2023/01/27 11:07:00;;;;;;;20.00;17.00;;;4.10;95.00;;;;;;10511171;28;20193;-79
2023/01/27 11:12:10;;;;;;;17.20;15.50;;;4.30;94.60;;;;;;10524601;28;20533;-79
2023/01/27 11:17:17;;;;;;;17.83;15.47;;;4.30;93.90;;;;;;10547482;28;20220;-78
2023/01/27 11:22:26;;;;;;;16.00;14.07;;;4.20;94.20;;;;;;10536627;28;20616;-78
2023/01/27 11:27:44;;;;;;;15.90;14.20;;;4.10;94.20;;;;;;10558672;28;20273;-77
2023/01/27 11:32:55;;;;;;;16.07;14.37;;;4.00;94.10;;;;;;10552561;28;20247;-77
2023/01/27 11:37:58;;;;;;;16.40;14.60;;;4.00;94.30;;;;;;10577866;28;20251;-78
2023/01/27 11:43:02;;;;;;;15.63;13.40;;;4.10;94.50;;;;;;10580957;28;20421;-76
2023/01/27 11:48:12;;;;;;;14.93;13.30;;;4.10;94.30;;;;;;10556189;28;20337;-77
2023/01/27 11:53:22;;;;;;;15.57;13.33;;;4.10;94.90;;;;;;10551145;28;20219;-78
2023/01/27 11:58:27;;;;;;;16.43;14.13;;;4.10;94.80;;;;;;10566462;28;20226;-77
2023/01/27 12:03:43;;;;;;;14.13;12.60;;;4.20;94.40;;;;;;10539978;28;20282;-77
2023/01/27 12:08:48;;;;;;;15.53;12.53;;;4.20;94.40;;;;;;10554472;28;20223;-78
2023/01/27 12:14:01;;;;;;;15.47;13.80;;;4.20;94.70;;;;;;10506161;28;20234;-78
2023/01/27 12:19:06;;;;;;;14.80;13.20;;;4.20;94.20;;;;;;10553209;28;20594;-78
2023/01/27 12:24:27;;;;;;;19.33;16.10;;;4.30;94.10;;;;;;10523134;28;20652;-76
2023/01/27 12:29:41;;;;;;;16.50;14.70;;;4.40;94.30;;;;;;10555936;28;20678;-78
2023/01/27 12:34:45;;;;;;;17.73;15.10;;;4.50;94.30;;;;;;10548617;28;20273;-77
2023/01/27 12:39:55;;;;;;;17.00;15.25;;;4.50;94.80;;;;;;10567438;28;20285;-77
2023/01/27 12:44:59;;;;;;;18.03;15.77;;;4.60;93.90;;;;;;10554236;28;20651;-77
2023/01/27 12:50:21;;;;;;;17.60;14.60;;;4.60;94.00;;;;;;10574966;28;20216;-77
2023/01/27 12:55:32;;;;;;;22.97;17.23;;;4.50;94.60;;;;;;10546678;28;20254;-77
2023/01/27 13:00:37;;;;;;;19.27;15.80;;;4.50;94.00;;;;;;10553698;28;20953;-77
2023/01/27 13:05:42;;;;;;;19.33;16.70;;;4.40;94.80;;;;;;10555534;28;20199;-77
2023/01/27 13:10:55;;;;;;;19.90;17.10;;;4.30;94.30;;;;;;10497664;28;20228;-77
2023/01/27 13:16:03;;;;;;;21.70;17.53;;;4.50;94.90;;;;;;10534062;28;20227;-77
2023/01/27 13:21:15;;;;;;;19.52;16.73;;;4.50;94.70;;;;;;10534102;28;20216;-77
2023/01/27 13:26:22;;;;;;;19.83;17.63;;;4.60;94.90;;;;;;10524252;28;20286;-76
2023/01/27 13:31:38;;;;;;;19.53;17.33;;;4.60;94.30;;;;;;10528971;28;20223;-77
2023/01/27 13:36:48;;;;;;;23.80;17.93;;;4.50;95.10;;;;;;10517295;28;20224;-76
2023/01/27 13:42:00;;;;;;;21.10;18.47;;;4.40;94.90;;;;;;10516848;28;20203;-77
2023/01/27 13:47:10;;;;;;;20.77;18.50;;;4.30;95.10;;;;;;10537497;28;20958;-76
2023/01/27 13:52:13;;;;;;;22.83;18.83;;;4.30;95.00;;;;;;10533060;28;20619;-77
2023/01/27 13:57:47;;;;;;;21.93;18.93;;;4.20;95.00;;;;;;10542052;28;20227;-77
2023/01/27 14:03:14;;;;;;;22.40;19.17;;;4.20;95.80;;;;;;10503205;28;20656;-77
2023/01/27 14:08:33;;;;;;;22.97;20.20;;;4.10;95.50;;;;;;10505980;28;20314;-77
2023/01/27 14:13:50;;;;;;;22.87;19.70;;;4.10;95.10;;;;;;10526793;28;20215;-77
2023/01/27 14:18:57;;;;;;;20.00;17.03;;;4.10;96.00;;;;;;10544357;28;20215;-77
2023/01/27 14:24:10;;;;;;;21.13;18.97;;;4.10;96.00;;;;;;10523404;28;20741;-77
2023/01/27 14:29:26;;;;;;;25.35;19.60;;;4.10;95.90;;;;;;10510179;28;20228;-78
2023/01/27 14:34:40;;;;;;;22.40;19.80;;;4.20;95.90;;;;;;10527204;28;20215;-79
2023/01/27 14:39:52;;;;;;;20.87;18.60;;;4.20;95.90;;;;;;10525221;28;20325;-78
2023/01/27 14:45:03;;;;;;;21.43;18.67;;;4.20;95.90;;;;;;10521354;28;20195;-77
2023/01/27 14:50:20;;;;;;;22.73;17.30;;;4.10;96.10;;;;;;10538861;28;20683;-78
2023/01/27 14:55:34;;;;;;;17.90;16.10;;;4.10;95.60;;;;;;10533237;28;20223;-78
2023/01/27 15:00:48;;;;;;;19.40;17.40;;;4.10;96.50;;;;;;10546291;28;20278;-79
2023/01/27 15:05:57;;;;;;;17.30;15.53;;;4.10;95.80;;;;;;10520724;28;20584;-78
2023/01/27 15:11:11;;;;;;;16.97;15.20;;;4.20;95.50;;;;;;10527845;28;20215;-78
2023/01/27 15:16:30;;;;;;;17.63;15.30;;;4.20;95.70;;;;;;10526105;28;20220;-77
2023/01/27 15:22:01;;;;;;;17.97;16.17;;;4.20;95.70;;;;;;10547360;28;20299;-79
2023/01/27 15:27:04;;;;;;;19.33;16.80;;;4.10;95.90;;;;;;10520126;28;20224;-77
2023/01/27 15:32:27;;;;;;;19.93;17.27;;;4.10;95.50;;;;;;10517937;28;20204;-77
2023/01/27 15:37:29;;;;;;;21.00;16.40;;;4.10;95.80;;;;;;10524557;28;20683;-77
2023/01/27 15:42:51;;;;;;;18.00;16.13;;;4.00;95.90;;;;;;10539923;28;20193;-77
2023/01/27 15:48:00;;;;;;;18.17;15.90;;;4.10;96.30;;;;;;10507868;28;20223;-77
2023/01/27 15:53:11;;;;;;;18.37;15.30;;;4.10;96.20;;;;;;10539900;28;20235;-78
2023/01/27 15:58:27;;;;;;;17.17;15.37;;;4.10;95.90;;;;;;10542987;28;20241;-78
2023/01/27 16:03:32;;;;;;;16.95;15.15;;;4.00;96.00;;;;;;10533654;28;20207;-77
2023/01/27 16:08:40;;;;;;;14.70;13.10;;;4.20;95.40;;;;;;10563251;28;20309;-77
2023/01/27 16:13:42;;;;;;;18.30;16.40;;;4.20;96.10;;;;;;10558750;28;20216;-77
2023/01/27 16:18:49;;;;;;;17.70;15.97;;;4.30;95.40;;;;;;10511671;28;20230;-78
2023/01/27 16:23:57;;;;;;;16.85;15.05;;;4.30;95.40;;;;;;10558257;28;20228;-78
2023/01/27 16:29:16;;;;;;;16.70;15.00;;;4.30;95.80;;;;;;10531127;28;20284;-77
2023/01/27 16:34:26;;;;;;;15.47;13.87;;;4.30;95.90;;;;;;10550817;28;20251;-77
2023/01/27 16:39:36;;;;;;;15.18;13.68;;;4.20;95.60;;;;;;10542897;28;20226;-77
2023/01/27 16:44:41;;;;;;;16.27;14.52;;;4.30;95.70;;;;;;10542626;28;20242;-78
2023/01/27 16:49:47;;;;;;;15.65;14.05;;;4.50;95.10;;;;;;10510807;28;20218;-78
2023/01/27 16:54:52;;;;;;;16.40;14.80;;;4.50;95.10;;;;;;10513943;28;20211;-78
2023/01/27 16:59:59;;;;;;;15.87;14.37;;;4.50;95.20;;;;;;10566899;28;20614;-77
2023/01/27 17:05:12;;;;;;;16.93;15.07;;;4.30;95.00;;;;;;10512604;28;20191;-77
2023/01/27 17:10:15;;;;;;;14.63;13.13;;;4.20;94.90;;;;;;10553999;28;20702;-77
2023/01/27 17:15:20;;;;;;;14.93;13.50;;;4.10;95.30;;;;;;10510207;28;20228;-77
2023/01/27 17:20:28;;;;;;;16.00;13.98;;;4.10;95.20;;;;;;10472178;28;20273;-77
2023/01/27 17:25:33;;;;;;;16.20;14.53;;;4.20;95.30;;;;;;10517183;28;20203;-77
2023/01/27 17:30:38;;;;;;;15.03;13.60;;;4.20;95.80;;;;;;10519123;28;20586;-77
2023/01/27 17:35:41;;;;;;;14.60;13.30;;;4.10;95.60;;;;;;10528322;28;20236;-77
2023/01/27 17:40:46;;;;;;;14.43;13.00;;;4.10;95.70;;;;;;10519877;28;20238;-77
2023/01/27 17:45:50;;;;;;;13.57;12.10;;;4.30;95.40;;;;;;10542910;28;20441;-77
2023/01/27 17:50:53;;;;;;;14.57;13.10;;;4.40;94.60;;;;;;10542256;28;20215;-77
2023/01/27 17:55:56;;;;;;;14.67;13.20;;;4.40;95.30;;;;;;10525162;28;20281;-79
2023/01/27 18:00:58;;;;;;;15.33;13.83;;;4.30;95.40;;;;;;10524209;28;20657;-78
2023/01/27 18:06:04;;;;;;;14.10;12.70;;;4.20;96.20;;;;;;10525276;28;20291;-78
2023/01/27 18:11:12;;;;;;;15.70;13.73;;;4.20;95.90;;;;;;10545633;28;20222;-78
2023/01/27 18:16:15;;;;;;;13.97;12.57;;;4.20;95.90;;;;;;10512912;28;20215;-76
2023/01/27 18:21:22;;;;;;;12.97;11.70;;;4.20;95.90;;;;;;10525144;28;20211;-77
2023/01/27 18:26:27;;;;;;;13.70;12.40;;;4.20;95.50;;;;;;10523358;28;20294;-77
2023/01/27 18:31:33;;;;;;;14.55;13.20;;;4.10;95.60;;;;;;10523575;28;20219;-77
2023/01/27 18:36:37;;;;;;;13.33;12.13;;;4.30;95.40;;;;;;10540944;28;20273;-77
2023/01/27 18:41:46;;;;;;;12.70;11.50;;;4.30;95.80;;;;;;10466858;28;20228;-77
2023/01/27 18:46:48;;;;;;;13.17;11.97;;;4.20;95.90;;;;;;10422952;28;20196;-76
2023/01/27 18:51:52;;;;;;;12.20;11.10;;;4.30;96.10;;;;;;10451434;28;20439;-76
2023/01/27 18:56:54;;;;;;;13.10;11.80;;;4.40;95.50;;;;;;10473788;28;20592;-77
2023/01/27 19:01:56;;;;;;;13.90;12.50;;;4.30;96.00;;;;;;10494498;28;20225;-77
2023/01/27 19:06:59;;;;;;;12.90;11.70;;;4.20;95.90;;;;;;10427055;28;20719;-77
2023/01/27 19:12:02;;;;;;;12.13;10.93;;;4.20;95.90;;;;;;10496599;28;20204;-77
2023/01/27 19:17:10;;;;;;;13.07;11.80;;;4.20;95.90;;;;;;10458363;28;20594;-77
2023/01/27 19:22:16;;;;;;;12.33;11.10;;;4.20;96.00;;;;;;10485557;28;20259;-77
2023/01/27 19:27:19;;;;;;;11.70;10.47;;;4.20;95.20;;;;;;10470356;28;20290;-77
2023/01/27 19:32:21;;;;;;;11.73;10.63;;;4.10;95.30;;;;;;10478830;28;20232;-76
2023/01/27 19:37:24;;;;;;;11.63;10.60;;;4.10;95.70;;;;;;10489768;28;20227;-77
2023/01/27 19:42:26;;;;;;;11.43;10.30;;;4.10;95.60;;;;;;10523456;28;20203;-76
2023/01/27 19:47:28;;;;;;;11.40;10.30;;;4.10;96.00;;;;;;10503013;28;20312;-78
2023/01/27 19:52:32;;;;;;;10.40;9.40;;;4.10;96.00;;;;;;10504999;28;20248;-76
2023/01/27 19:57:35;;;;;;;10.80;9.90;;;4.30;96.10;;;;;;10503605;28;20227;-78
2023/01/27 20:02:38;;;;;;;10.43;9.50;;;4.40;95.80;;;;;;10514649;28;20208;-78
2023/01/27 20:07:42;;;;;;;11.93;10.80;;;4.50;95.90;;;;;;10501240;28;20503;-77
2023/01/27 20:12:44;;;;;;;11.50;10.50;;;4.50;95.40;;;;;;10517878;28;21074;-78
2023/01/27 20:17:46;;;;;;;11.33;10.23;;;4.40;95.50;;;;;;10529061;28;20656;-78
2023/01/27 20:22:51;;;;;;;14.27;12.60;;;4.30;95.70;;;;;;10501226;28;20291;-78
2023/01/27 20:27:55;;;;;;;11.70;10.63;;;4.30;95.80;;;;;;10503698;28;20361;-78
2023/01/27 20:32:57;;;;;;;13.40;11.73;;;4.30;96.00;;;;;;10517862;28;20208;-77
2023/01/27 20:38:01;;;;;;;12.17;11.07;;;4.20;96.00;;;;;;10531360;28;20220;-78
2023/01/27 20:43:03;;;;;;;11.57;10.40;;;4.20;96.20;;;;;;10482449;28;20665;-77
2023/01/27 20:48:05;;;;;;;12.77;11.60;;;4.20;96.40;;;;;;10509838;28;20668;-77
2023/01/27 20:53:08;;;;;;;11.77;10.60;;;4.30;96.80;;;;;;10527079;28;20289;-78
2023/01/27 20:58:10;;;;;;;13.37;9.97;;;4.30;96.20;;;;;;10521729;28;20227;-78
2023/01/27 21:03:12;;;;;;;14.60;13.30;;;4.30;96.20;;;;;;10510734;28;20734;-80
2023/01/27 21:08:16;;;;;;;19.00;17.03;;;4.30;96.60;;;;;;10514400;28;20739;-76
2023/01/27 21:13:21;;;;;;;15.07;13.47;;;4.30;96.40;;;;;;10503234;28;20208;-78
2023/01/27 21:18:24;;;;;;;13.80;12.40;;;4.50;96.60;;;;;;10540776;28;20232;-78
2023/01/27 21:23:28;;;;;;;13.80;12.30;;;4.60;96.50;;;;;;10531382;28;20613;-78
2023/01/27 21:28:31;;;;;;;12.67;11.23;;;4.50;96.20;;;;;;10549899;28;20212;-81
2023/01/27 21:33:35;;;;;;;12.27;11.17;;;4.50;95.90;;;;;;10538948;28;20233;-78
2023/01/27 21:38:39;;;;;;;11.77;10.57;;;4.60;96.40;;;;;;10489080;28;20481;-78
2023/01/27 21:49:00;;;;;;;10.20;9.20;;;4.60;95.90;;;;;;10518430;28;20600;-78
2023/01/27 21:54:04;;;;;;;10.60;9.70;;;4.60;95.70;;;;;;10499903;28;20283;-77
2023/01/27 21:59:06;;;;;;;12.30;9.60;;;4.50;96.00;;;;;;10472167;28;20222;-77
2023/01/27 22:04:10;;;;;;;10.20;9.20;;;4.50;96.00;;;;;;10513398;28;20287;-77
2023/01/27 22:09:16;;;;;;;9.70;8.80;;;4.40;95.90;;;;;;10535895;28;20305;-77
2023/01/27 22:14:18;;;;;;;10.50;9.60;;;4.40;96.50;;;;;;10495376;28;20204;-78
2023/01/27 22:19:20;;;;;;;9.63;8.70;;;4.40;96.60;;;;;;10516287;28;20228;-78
2023/01/27 22:24:24;;;;;;;13.73;10.20;;;4.40;95.90;;;;;;10543167;28;20197;-77
2023/01/27 22:29:26;;;;;;;10.13;9.23;;;4.40;96.20;;;;;;10524829;28;20212;-77
2023/01/27 22:34:31;;;;;;;10.50;9.60;;;4.50;96.00;;;;;;10538957;28;20426;-77
2023/01/27 22:39:36;;;;;;;11.07;9.97;;;4.50;96.00;;;;;;10512458;28;20219;-78
2023/01/27 22:44:38;;;;;;;10.57;9.47;;;4.50;96.40;;;;;;10535791;28;20199;-77
2023/01/27 22:49:43;;;;;;;10.57;9.63;;;4.50;96.30;;;;;;10486507;28;20216;-77
2023/01/27 22:54:46;;;;;;;11.00;9.00;;;4.50;96.50;;;;;;10494857;28;20254;-77
2023/01/27 22:59:49;;;;;;;10.80;9.90;;;4.50;96.40;;;;;;10518584;28;20234;-77
2023/01/27 23:04:51;;;;;;;10.70;9.73;;;4.50;96.00;;;;;;10506949;28;20314;-77
2023/01/27 23:09:54;;;;;;;10.23;9.33;;;4.60;96.20;;;;;;10536669;28;20213;-77
2023/01/27 23:14:58;;;;;;;9.70;8.90;;;4.60;96.00;;;;;;10517088;28;20266;-77
2023/01/27 23:20:00;;;;;;;8.98;8.27;;;4.60;96.10;;;;;;10498837;28;20307;-77
2023/01/27 23:25:03;;;;;;;9.90;9.00;;;4.70;95.90;;;;;;10499360;28;20196;-78
2023/01/27 23:30:10;;;;;;;9.97;9.10;;;4.90;95.80;;;;;;10539078;28;20220;-77
2023/01/27 23:35:12;;;;;;;9.53;8.63;;;4.80;95.50;;;;;;10485945;28;20647;-77
2023/01/27 23:40:53;;;;;;;10.27;9.45;;;4.70;95.00;;;;;;10511000;28;20250;-79
2023/01/27 23:45:56;;;;;;;9.98;9.13;;;4.80;95.40;;;;;;10502464;28;20287;-78
2023/01/27 23:50:59;;;;;;;9.17;8.47;;;4.90;95.50;;;;;;10544518;28;20216;-80
2023/01/27 23:56:02;;;;;;;9.43;8.63;;;4.90;94.90;;;;;;10563092;28;20211;-80
